createdAt,value
2018-09-11T00:00:29.190Z,4.60
2018-09-11T00:02:57.460Z,3.17
2018-09-11T00:05:26.409Z,3.60
2018-09-11T00:07:54.838Z,4.20
2018-09-11T00:10:24.181Z,3.47
2018-09-11T00:12:52.689Z,3.77
2018-09-11T00:15:20.968Z,2.80
2018-09-11T00:17:49.641Z,3.77
2018-09-11T00:20:17.948Z,3.70
2018-09-11T00:22:47.038Z,3.90
2018-09-11T00:25:15.560Z,3.27
2018-09-11T00:27:43.862Z,3.30
2018-09-11T00:30:12.162Z,3.30
2018-09-11T00:32:40.572Z,3.90
2018-09-11T00:35:09.717Z,4.33
2018-09-11T00:37:37.965Z,3.70
2018-09-11T00:40:07.096Z,3.40
2018-09-11T00:42:35.418Z,3.87
2018-09-11T00:45:03.855Z,3.30
2018-09-11T00:47:33.081Z,3.57
2018-09-11T00:50:01.738Z,4.10
2018-09-11T00:52:30.318Z,3.40
2018-09-11T00:54:58.752Z,3.67
2018-09-11T00:57:27.161Z,3.80
2018-09-11T00:59:55.837Z,3.20
2018-09-11T01:02:24.269Z,3.67
2018-09-11T01:04:52.776Z,3.70
2018-09-11T01:07:22.196Z,3.97
2018-09-11T01:09:52.291Z,3.60
2018-09-11T01:12:20.652Z,3.73
2018-09-11T01:14:49.672Z,3.10
2018-09-11T01:17:18.229Z,3.23
2018-09-11T01:19:46.558Z,2.87
2018-09-11T01:22:14.927Z,3.80
2018-09-11T01:24:43.251Z,3.20
2018-09-11T01:27:11.554Z,3.47
2018-09-11T01:29:40.973Z,3.27
2018-09-11T01:32:09.652Z,3.70
2018-09-11T01:34:37.976Z,3.30
2018-09-11T01:37:06.485Z,4.20
2018-09-11T01:39:34.886Z,3.63
2018-09-11T01:42:03.189Z,4.13
2018-09-11T01:44:31.461Z,3.43
2018-09-11T01:46:59.937Z,3.80
2018-09-11T01:49:28.401Z,4.60
2018-09-11T01:51:56.701Z,4.27
2018-09-11T01:54:24.965Z,3.73
2018-09-11T01:56:53.250Z,3.70
2018-09-11T01:59:21.646Z,3.40
2018-09-11T02:01:49.941Z,3.70
2018-09-11T02:04:19.592Z,4.10
2018-09-11T02:06:47.909Z,3.70
2018-09-11T02:09:16.238Z,4.00
2018-09-11T02:11:44.538Z,4.00
2018-09-11T02:14:12.787Z,4.37
2018-09-11T02:16:41.214Z,3.70
2018-09-11T02:19:09.543Z,4.43
2018-09-11T02:21:37.841Z,3.70
2018-09-11T02:24:06.100Z,4.03
2018-09-11T02:26:34.784Z,4.40
2018-09-11T02:29:03.045Z,4.30
2018-09-11T02:31:31.336Z,3.83
2018-09-11T02:33:59.605Z,3.30
2018-09-11T02:36:27.890Z,3.93
2018-09-11T02:38:56.149Z,3.83
2018-09-11T02:41:24.717Z,4.00
2018-09-11T02:43:53.295Z,3.90
2018-09-11T02:46:21.575Z,4.27
2018-09-11T02:48:50.225Z,3.70
2018-09-11T02:51:19.621Z,4.20
2018-09-11T02:53:47.904Z,4.30
2018-09-11T02:56:16.176Z,4.00
2018-09-11T02:58:44.451Z,4.40
2018-09-11T03:01:12.747Z,3.90
2018-09-11T03:03:41.057Z,3.93
2018-09-11T03:06:09.753Z,4.10
2018-09-11T03:08:38.026Z,3.80
2018-09-11T03:11:06.452Z,3.43
2018-09-11T03:13:34.720Z,3.83
2018-09-11T03:16:03.460Z,3.73
2018-09-11T03:18:32.040Z,3.63
2018-09-11T03:21:00.448Z,3.70
2018-09-11T03:23:28.726Z,4.27
2018-09-11T03:25:57.009Z,3.90
2018-09-11T03:28:25.481Z,4.10
2018-09-11T03:30:53.762Z,4.17
2018-09-11T03:33:22.064Z,4.10
2018-09-11T03:35:50.847Z,4.33
2018-09-11T03:38:20.228Z,3.60
2018-09-11T03:40:48.828Z,4.17
2018-09-11T03:43:17.079Z,4.70
2018-09-11T03:45:49.257Z,4.20
2018-09-11T03:48:19.421Z,4.43
2018-09-11T03:50:50.232Z,4.20
2018-09-11T03:53:25.757Z,5.07
2018-09-11T03:55:54.064Z,4.70
2018-09-11T03:58:22.317Z,4.93
2018-09-11T13:31:47.135Z,1.80
2018-09-11T13:37:14.521Z,2.33
2018-09-11T13:39:44.457Z,2.07
2018-09-11T13:42:13.519Z,1.93
2018-09-11T13:44:42.782Z,1.60
2018-09-11T13:47:11.595Z,2.00
2018-09-11T13:49:40.657Z,1.77
2018-09-11T13:52:09.985Z,1.53
2018-09-11T13:54:39.797Z,1.90
2018-09-11T13:57:08.600Z,1.60
2018-09-11T13:59:37.810Z,1.50
2018-09-11T14:02:06.416Z,2.07
2018-09-11T14:04:35.750Z,1.63
2018-09-11T14:07:05.438Z,1.93
2018-09-11T14:09:35.574Z,1.90
2018-09-11T14:12:04.709Z,2.07
2018-09-11T14:14:34.080Z,1.90
2018-09-11T14:17:04.495Z,2.00
2018-09-11T14:19:35.802Z,2.17
2018-09-11T14:22:07.085Z,2.10
2018-09-11T14:24:36.082Z,2.30
2018-09-11T14:27:06.163Z,2.13
2018-09-11T14:29:34.995Z,1.97
2018-09-11T14:32:04.868Z,2.90
2018-09-11T14:34:35.629Z,2.43
2018-09-11T14:37:14.013Z,2.57
2018-09-11T14:39:46.509Z,2.20
2018-09-11T14:42:18.326Z,2.10
2018-09-11T14:44:51.199Z,3.53
2018-09-11T14:47:21.189Z,2.00
2018-09-11T14:49:52.448Z,2.13
2018-09-11T14:52:21.387Z,1.97
2018-09-11T14:54:51.006Z,2.67
2018-09-11T14:57:20.154Z,2.53
2018-09-11T14:59:53.908Z,2.07
2018-09-11T15:02:25.225Z,2.00
2018-09-11T15:04:55.797Z,2.27
2018-09-11T15:07:26.162Z,2.17
2018-09-11T15:09:54.634Z,2.33
2018-09-11T15:12:23.294Z,2.63
2018-09-11T15:14:53.814Z,1.93
2018-09-11T15:17:31.027Z,2.50
2018-09-11T15:20:02.350Z,2.50
2018-09-11T15:22:30.803Z,2.10
2018-09-11T15:25:00.289Z,2.33
2018-09-11T15:27:30.351Z,2.33
2018-09-11T15:29:58.720Z,2.50
2018-09-11T15:32:28.658Z,2.30
2018-09-11T15:34:57.217Z,2.47
2018-09-11T15:37:31.964Z,2.20
2018-09-11T15:40:03.380Z,2.30
2018-09-11T15:42:32.772Z,2.60
2018-09-11T15:45:01.486Z,2.50
2018-09-11T15:47:32.695Z,2.27
2018-09-11T15:50:04.590Z,2.40
2018-09-11T15:52:33.246Z,2.33
2018-09-11T15:55:02.245Z,2.60
2018-09-11T15:57:30.659Z,2.13
2018-09-11T15:59:59.286Z,2.50
2018-09-11T16:02:30.246Z,2.60
2018-09-11T16:05:01.999Z,2.60
2018-09-11T16:07:32.957Z,2.20
2018-09-11T16:10:02.720Z,2.50
2018-09-11T16:12:34.348Z,2.67
2018-09-11T16:15:07.534Z,2.10
2018-09-11T16:17:36.093Z,2.60
2018-09-11T16:20:09.050Z,2.37
2018-09-11T16:22:38.907Z,2.70
2018-09-11T16:25:09.837Z,2.60
2018-09-11T16:27:41.306Z,2.20
2018-09-11T16:30:10.783Z,2.83
2018-09-11T16:32:39.226Z,2.67
2018-09-11T16:35:09.212Z,2.10
2018-09-11T16:37:43.553Z,2.60
2018-09-11T16:40:14.331Z,2.80
2018-09-11T16:42:43.878Z,2.40
2018-09-11T16:45:14.779Z,2.53
2018-09-11T16:47:49.401Z,2.70
2018-09-11T16:50:18.616Z,2.53
2018-09-11T16:52:49.180Z,2.60
2018-09-11T16:55:18.676Z,2.93
2018-09-11T16:57:48.157Z,2.80
2018-09-11T17:00:17.203Z,2.87
2018-09-11T17:02:46.756Z,3.37
2018-09-11T17:05:17.387Z,3.30
2018-09-11T17:07:47.284Z,3.80
2018-09-11T17:10:18.888Z,3.10
2018-09-11T17:12:51.871Z,3.37
2018-09-11T17:15:21.293Z,3.50
2018-09-11T17:17:50.701Z,3.00
2018-09-11T17:20:22.143Z,3.67
2018-09-11T17:22:53.722Z,3.43
2018-09-11T17:25:22.725Z,3.37
2018-09-11T17:27:55.114Z,3.27
2018-09-11T17:30:25.494Z,3.30
2018-09-11T17:32:56.717Z,3.30
2018-09-11T17:35:31.067Z,3.30
2018-09-11T17:38:03.154Z,3.07
2018-09-11T17:40:35.751Z,3.37
2018-09-11T17:43:04.970Z,3.13
2018-09-11T17:45:40.189Z,3.60
2018-09-11T17:48:10.303Z,3.17
2018-09-11T17:50:48.664Z,3.20
2018-09-11T17:53:23.375Z,3.33
2018-09-11T17:55:52.518Z,3.60
2018-09-11T17:58:24.405Z,3.30
2018-09-11T18:00:56.257Z,4.07
2018-09-11T18:03:29.115Z,3.60
2018-09-11T18:06:00.218Z,3.50
2018-09-11T18:08:29.907Z,3.37
2018-09-11T18:11:00.680Z,3.50
2018-09-11T18:13:29.298Z,3.03
2018-09-11T18:15:59.392Z,2.93
2018-09-11T18:18:29.395Z,3.90
2018-09-11T18:20:58.461Z,3.70
2018-09-11T18:23:27.737Z,3.57
2018-09-11T18:26:00.521Z,3.47
2018-09-11T18:28:31.785Z,3.83
2018-09-11T18:31:01.980Z,3.90
2018-09-11T18:33:31.232Z,3.67
2018-09-11T18:36:00.767Z,4.60
2018-09-11T18:38:37.181Z,4.77
2018-09-11T18:41:11.672Z,4.63
2018-09-11T18:43:41.590Z,4.10
2018-09-11T18:46:11.939Z,5.13
2018-09-11T18:48:41.947Z,4.53
2018-09-11T18:51:13.578Z,4.87
2018-09-11T18:53:43.712Z,4.50
2018-09-11T18:56:14.664Z,5.17
2018-09-11T18:58:50.667Z,6.20
2018-09-11T19:01:20.953Z,4.83
2018-09-11T19:03:50.989Z,4.67
2018-09-11T19:06:20.951Z,5.40
2018-09-11T19:08:57.769Z,5.50
2018-09-11T19:11:35.009Z,4.77
2018-09-11T19:14:05.714Z,4.80
2018-09-11T19:17:41.303Z,3.87
2018-09-11T19:20:27.400Z,4.57
2018-09-11T19:22:58.185Z,5.27
2018-09-11T19:25:30.653Z,4.70
2018-09-11T19:28:00.741Z,4.77
2018-09-11T19:30:33.681Z,4.13
2018-09-11T19:33:08.054Z,4.03
2018-09-11T19:35:38.424Z,4.77
2018-09-11T19:38:19.188Z,5.30
2018-09-11T19:40:51.300Z,5.00
2018-09-11T19:43:22.426Z,4.53
2018-09-11T19:45:52.023Z,4.43
2018-09-11T19:48:27.513Z,5.07
2018-09-11T19:51:00.089Z,4.47
2018-09-11T19:53:29.983Z,4.60
2018-09-11T19:56:02.089Z,4.80
2018-09-11T19:58:33.468Z,4.60
2018-09-11T20:01:02.075Z,4.57
2018-09-11T20:03:32.161Z,4.80
2018-09-11T20:06:02.033Z,4.30
2018-09-11T20:08:31.388Z,4.87
2018-09-11T20:12:02.985Z,4.60
2018-09-11T20:14:32.530Z,5.13
2018-09-11T20:17:03.270Z,4.83
2018-09-11T20:19:32.169Z,4.70
2018-09-11T20:22:00.781Z,4.50
2018-09-11T20:24:34.087Z,4.70
2018-09-11T20:27:07.359Z,4.27
2018-09-11T20:29:38.864Z,5.17
2018-09-11T20:32:07.642Z,4.67
2018-09-11T20:34:36.182Z,4.60
2018-09-11T20:37:07.749Z,4.03
2018-09-11T20:39:37.635Z,4.97
2018-09-11T20:42:07.577Z,4.97
2018-09-11T20:44:39.085Z,4.27
2018-09-11T20:47:08.650Z,5.00
2018-09-11T20:49:37.728Z,4.87
2018-09-11T20:52:09.692Z,4.40
2018-09-11T20:54:40.209Z,5.00
2018-09-11T20:57:08.741Z,4.47
2018-09-11T20:59:39.039Z,4.20
2018-09-11T21:02:07.726Z,4.20
2018-09-11T21:04:38.618Z,4.90
2018-09-11T21:07:09.235Z,5.20
2018-09-11T21:09:39.108Z,3.60
2018-09-11T21:12:10.603Z,4.30
2018-09-11T21:14:43.367Z,4.10
2018-09-11T21:17:12.118Z,4.00
2018-09-11T21:19:42.916Z,4.63
2018-09-11T21:22:14.074Z,3.97
2018-09-11T21:24:47.086Z,4.20
2018-09-11T21:27:16.697Z,4.80
2018-09-11T21:29:47.662Z,4.23
2018-09-11T21:32:17.654Z,4.47
2018-09-11T21:34:46.550Z,4.20
2018-09-11T21:37:17.806Z,4.47
2018-09-11T21:39:48.839Z,4.63
2018-09-11T21:42:21.099Z,4.30
2018-09-11T21:44:52.523Z,4.30
2018-09-11T21:47:23.484Z,3.60
2018-09-11T21:49:57.219Z,3.80
2018-09-11T21:52:27.525Z,3.90
2018-09-11T21:54:56.949Z,4.10
2018-09-11T21:57:27.040Z,3.90
2018-09-11T21:59:55.391Z,4.10
2018-09-11T22:02:25.105Z,4.03
2018-09-11T22:04:55.391Z,3.57
2018-09-11T22:07:25.154Z,3.73
2018-09-11T22:09:55.348Z,4.10
2018-09-11T22:12:24.337Z,3.90
2018-09-11T22:14:52.759Z,4.10
2018-09-11T22:17:22.139Z,4.00
2018-09-11T22:19:50.719Z,4.30
2018-09-11T22:22:19.838Z,3.07
2018-09-11T22:24:48.131Z,3.57
2018-09-11T22:27:17.193Z,4.40
2018-09-11T22:29:45.981Z,3.60
2018-09-11T22:32:14.365Z,3.47
2018-09-11T22:34:42.832Z,3.60
2018-09-11T22:37:11.593Z,3.90
2018-09-11T22:39:41.004Z,3.90
2018-09-11T22:42:11.116Z,3.67
2018-09-11T22:44:40.666Z,3.60
2018-09-11T22:47:09.258Z,3.60
2018-09-11T22:49:37.526Z,4.30
2018-09-11T22:52:06.908Z,3.33
2018-09-11T22:54:35.947Z,3.90
2018-09-11T22:57:04.320Z,3.90
2018-09-11T22:59:32.773Z,4.27
2018-09-11T23:02:01.071Z,3.60
2018-09-11T23:04:29.424Z,3.63
2018-09-11T23:07:01.066Z,3.50
2018-09-11T23:09:30.494Z,3.80
2018-09-11T23:11:58.929Z,3.43
2018-09-11T23:14:27.955Z,4.03
2018-09-11T23:16:56.644Z,4.30
2018-09-11T23:19:25.303Z,3.60
2018-09-11T23:21:54.870Z,3.70
2018-09-11T23:24:23.321Z,3.70
2018-09-11T23:26:51.608Z,4.00
2018-09-11T23:29:20.064Z,4.40
2018-09-11T23:31:49.141Z,3.40
2018-09-11T23:34:17.428Z,3.70
2018-09-11T23:36:45.924Z,3.83
2018-09-11T23:39:15.082Z,4.43
2018-09-11T23:41:44.726Z,3.83
2018-09-11T23:44:13.696Z,3.10
2018-09-11T23:46:41.986Z,3.53
2018-09-11T23:49:10.403Z,3.27
2018-09-11T23:51:38.908Z,3.73
2018-09-11T23:54:07.701Z,3.90
2018-09-11T23:56:36.469Z,3.97
2018-09-11T23:59:05.307Z,3.93
